createdAt,value
2022-08-20T00:03:09.341Z,8.50
2022-08-20T00:08:13.130Z,9.00
2022-08-20T00:13:21.756Z,8.90
2022-08-20T00:18:24.634Z,7.80
2022-08-20T00:23:27.442Z,11.30
2022-08-20T00:28:30.258Z,10.40
2022-08-20T00:33:33.313Z,7.80
2022-08-20T00:38:37.947Z,9.90
2022-08-20T00:43:48.473Z,10.30
2022-08-20T00:48:55.871Z,11.40
2022-08-20T00:54:22.893Z,10.40
2022-08-20T00:59:31.027Z,10.50
2022-08-20T01:04:35.649Z,10.00
2022-08-20T01:09:58.155Z,9.20
2022-08-20T01:15:04.778Z,10.60
2022-08-20T01:20:16.015Z,10.70
2022-08-20T01:25:44.512Z,9.40
2022-08-20T01:30:47.205Z,10.40
2022-08-20T01:35:50.543Z,9.80
2022-08-20T01:41:30.513Z,10.30
2022-08-20T01:46:38.142Z,10.80
2022-08-20T01:51:46.778Z,9.20
2022-08-20T01:57:02.401Z,9.50
2022-08-20T02:02:07.206Z,8.80
2022-08-20T02:07:18.939Z,9.70
2022-08-20T02:12:21.678Z,9.10
2022-08-20T02:17:25.975Z,8.80
2022-08-20T02:22:40.584Z,8.70
2022-08-20T02:27:49.641Z,8.90
2022-08-20T02:32:52.395Z,9.30
2022-08-20T02:37:59.216Z,9.50
2022-08-20T02:43:04.543Z,8.70
2022-08-20T02:48:07.398Z,9.50
2022-08-20T02:53:10.082Z,9.30
2022-08-20T02:58:13.207Z,8.70
2022-08-20T03:03:22.514Z,9.00
2022-08-20T03:08:27.296Z,9.70
2022-08-20T03:13:30.080Z,9.10
2022-08-20T03:18:37.523Z,9.30
2022-08-20T03:23:41.022Z,10.20
2022-08-20T03:28:44.369Z,9.90
2022-08-20T03:33:52.980Z,8.80
2022-08-20T03:39:03.477Z,9.90
2022-08-20T03:44:07.192Z,10.40
2022-08-20T03:49:10.301Z,9.40
2022-08-20T03:54:13.104Z,9.10
2022-08-20T03:59:15.813Z,10.80
2022-08-20T04:04:18.528Z,11.80
2022-08-20T04:09:21.304Z,10.40
2022-08-20T04:14:23.983Z,11.30
2022-08-20T04:19:30.135Z,11.40
2022-08-20T04:24:35.711Z,9.90
2022-08-20T04:29:43.119Z,9.50
2022-08-20T04:34:47.330Z,8.80
2022-08-20T04:40:26.543Z,11.50
2022-08-20T04:45:29.213Z,11.70
2022-08-20T04:50:36.533Z,10.70
2022-08-20T04:55:42.903Z,10.40
2022-08-20T05:00:48.302Z,10.70
2022-08-20T05:05:52.022Z,11.40
2022-08-20T05:10:58.126Z,11.10
2022-08-20T05:16:19.494Z,9.20
2022-08-20T05:21:22.217Z,9.10
2022-08-20T05:26:26.528Z,10.40
2022-08-20T05:31:31.713Z,10.30
2022-08-20T05:36:37.213Z,9.40
2022-08-20T05:41:40.980Z,10.40
2022-08-20T05:46:45.523Z,9.70
2022-08-20T05:51:51.090Z,9.40
2022-08-20T05:56:53.949Z,9.30
2022-08-20T06:01:56.645Z,9.80
2022-08-20T06:07:05.408Z,9.20
2022-08-20T06:12:09.471Z,9.00
2022-08-20T06:17:15.350Z,9.80
2022-08-20T06:22:23.282Z,8.60
2022-08-20T06:27:29.658Z,10.10
2022-08-20T06:32:33.840Z,9.00
2022-08-20T06:37:39.417Z,8.80
2022-08-20T06:42:48.073Z,8.60
2022-08-20T06:47:53.912Z,8.10
2022-08-20T06:52:57.003Z,8.40
2022-08-20T06:58:02.726Z,9.00
2022-08-20T07:03:05.751Z,8.80
2022-08-20T07:08:14.662Z,8.60
2022-08-20T07:13:17.547Z,8.40
2022-08-20T07:18:28.416Z,8.70
2022-08-20T07:23:31.803Z,8.70
2022-08-20T07:28:34.736Z,8.90
2022-08-20T07:33:40.660Z,9.20
2022-08-20T07:38:46.757Z,9.00
2022-08-20T07:43:49.494Z,8.40
2022-08-20T07:48:52.310Z,9.20
2022-08-20T07:53:55.095Z,9.40
2022-08-20T07:58:59.943Z,8.90
2022-08-20T08:04:03.150Z,10.30
2022-08-20T08:09:09.813Z,8.50
2022-08-20T08:14:13.349Z,9.40
2022-08-20T08:19:18.364Z,9.40
2022-08-20T08:24:25.314Z,10.10
2022-08-20T08:29:30.699Z,9.60
2022-08-20T08:34:36.500Z,9.30
2022-08-20T08:39:39.277Z,9.30
2022-08-20T08:44:42.264Z,10.40
2022-08-20T08:49:47.567Z,10.70
2022-08-20T08:54:56.511Z,9.90
2022-08-20T09:00:03.913Z,9.40
2022-08-20T09:05:17.828Z,10.00
2022-08-20T09:10:22.970Z,9.20
2022-08-20T09:15:26.300Z,10.70
2022-08-20T09:20:29.265Z,9.10
2022-08-20T09:25:32.085Z,9.70
2022-08-20T09:30:35.054Z,9.80
2022-08-20T09:35:40.452Z,9.20
2022-08-20T09:40:43.382Z,9.70
2022-08-20T09:45:46.075Z,9.60
2022-08-20T09:50:50.208Z,10.10
2022-08-20T09:55:56.056Z,10.10
2022-08-20T10:01:07.362Z,9.60
2022-08-20T10:06:19.945Z,10.10
2022-08-20T10:11:22.775Z,9.50
2022-08-20T10:16:25.509Z,10.80
2022-08-20T10:21:30.097Z,9.90
2022-08-20T10:26:33.114Z,10.60
2022-08-20T10:31:35.849Z,10.50
2022-08-20T10:36:38.580Z,10.80
2022-08-20T10:41:41.607Z,10.30
2022-08-20T10:46:45.868Z,10.60
2022-08-20T10:51:48.607Z,10.40
2022-08-20T10:56:51.457Z,9.20
2022-08-20T11:01:54.240Z,10.00
2022-08-20T11:06:57.009Z,10.40
2022-08-20T11:11:59.810Z,10.60
2022-08-20T11:17:03.206Z,10.80
2022-08-20T11:22:05.919Z,9.90
2022-08-20T11:27:09.780Z,10.60
2022-08-20T11:32:12.581Z,10.10
2022-08-20T11:37:17.202Z,10.50
2022-08-20T11:42:20.161Z,10.60
2022-08-20T11:47:26.875Z,10.80
2022-08-20T11:52:30.119Z,10.80
2022-08-20T11:57:35.360Z,12.00
2022-08-20T12:02:38.130Z,10.90
2022-08-20T12:07:41.537Z,11.20
2022-08-20T12:12:44.335Z,11.50
2022-08-20T12:17:47.272Z,12.30
2022-08-20T12:22:50.189Z,13.20
2022-08-20T12:27:53.113Z,12.70
2022-08-20T12:32:56.025Z,12.30
2022-08-20T12:38:02.312Z,12.10
2022-08-20T12:43:05.595Z,12.10
2022-08-20T12:48:11.687Z,13.40
2022-08-20T12:53:14.422Z,12.20
2022-08-20T12:58:17.098Z,12.60
2022-08-20T13:03:22.073Z,12.00
2022-08-20T13:08:24.793Z,12.60
2022-08-20T13:13:27.629Z,11.90
2022-08-20T13:18:30.429Z,13.30
2022-08-20T13:23:33.121Z,12.60
2022-08-20T13:28:36.166Z,12.20
2022-08-20T13:33:38.878Z,12.50
2022-08-20T13:38:41.631Z,13.60
2022-08-20T13:43:44.326Z,11.80
2022-08-20T13:48:47.018Z,11.30
2022-08-20T13:53:49.785Z,11.50
2022-08-20T13:58:53.117Z,11.00
2022-08-20T14:03:56.018Z,11.60
2022-08-20T14:08:58.965Z,12.40
2022-08-20T14:14:02.747Z,11.00
2022-08-20T14:19:06.071Z,11.20
2022-08-20T14:24:08.796Z,12.10
2022-08-20T14:29:11.523Z,12.50
2022-08-20T14:34:14.237Z,12.20
2022-08-20T14:39:20.517Z,12.40
2022-08-20T14:44:23.411Z,9.80
2022-08-20T14:49:26.203Z,10.20
2022-08-20T14:54:29.082Z,9.80
2022-08-20T14:59:32.158Z,9.50
2022-08-20T15:04:36.061Z,9.10
2022-08-20T15:09:39.011Z,8.60
2022-08-20T15:14:41.718Z,9.50
2022-08-20T15:19:44.666Z,7.60
2022-08-20T15:24:48.341Z,7.50
2022-08-20T15:29:52.464Z,9.00
2022-08-20T15:34:55.175Z,7.70
2022-08-20T15:39:57.913Z,7.50
2022-08-20T15:45:00.730Z,8.10
2022-08-20T15:50:09.374Z,7.50
2022-08-20T15:55:17.850Z,7.70
2022-08-20T16:00:25.812Z,7.40
2022-08-20T16:05:50.486Z,7.80
2022-08-20T16:11:18.449Z,8.10
2022-08-20T16:16:33.284Z,9.90
2022-08-20T16:21:40.435Z,10.60
2022-08-20T16:27:13.423Z,9.20
2022-08-20T16:32:25.868Z,8.90
2022-08-20T16:37:33.187Z,9.70
2022-08-20T16:42:42.426Z,9.40
2022-08-20T16:47:46.955Z,9.90
2022-08-20T16:52:51.785Z,8.30
2022-08-20T16:57:54.948Z,10.10
2022-08-20T17:03:01.632Z,11.00
2022-08-20T17:08:07.450Z,10.20
2022-08-20T17:13:15.996Z,10.50
2022-08-20T17:18:27.542Z,10.60
2022-08-20T17:23:31.027Z,10.60
2022-08-20T17:28:35.704Z,10.80
2022-08-20T17:33:39.662Z,11.60
2022-08-20T17:38:52.870Z,10.20
2022-08-20T17:44:07.717Z,11.40
2022-08-20T17:49:13.108Z,10.90
2022-08-20T17:54:27.301Z,11.30
2022-08-20T18:00:00.925Z,12.40
2022-08-20T18:05:06.662Z,12.10
2022-08-20T18:10:14.502Z,11.50
2022-08-20T18:15:23.764Z,12.40
2022-08-20T18:20:37.758Z,13.60
2022-08-20T18:25:54.886Z,13.70
2022-08-20T18:31:02.112Z,13.80
2022-08-20T18:36:07.115Z,13.50
2022-08-20T18:41:30.061Z,12.40
2022-08-20T18:46:34.043Z,12.40
2022-08-20T18:51:42.616Z,13.00
2022-08-20T18:56:45.286Z,11.60
2022-08-20T19:01:49.515Z,11.50
2022-08-20T19:06:58.044Z,11.50
2022-08-20T19:12:05.139Z,11.90
2022-08-20T19:17:15.065Z,13.10
2022-08-20T19:22:20.898Z,9.90
2022-08-20T19:27:24.697Z,10.30
2022-08-20T19:32:33.010Z,11.30
2022-08-20T19:37:50.839Z,12.40
2022-08-20T19:42:56.227Z,11.30
2022-08-20T19:48:27.385Z,10.70
2022-08-20T19:53:33.412Z,11.60
2022-08-20T19:58:37.494Z,13.10
2022-08-20T20:03:40.677Z,10.10
2022-08-20T20:08:55.094Z,11.30
2022-08-20T20:14:04.518Z,12.30
2022-08-20T20:19:25.847Z,11.60
2022-08-20T20:29:37.041Z,13.40
2022-08-20T20:34:55.066Z,11.10
2022-08-20T20:40:19.062Z,11.80
2022-08-20T20:45:32.154Z,7.20
2022-08-20T20:50:36.899Z,6.00
2022-08-20T20:55:41.911Z,6.10
2022-08-20T21:00:44.596Z,5.60
2022-08-20T21:05:47.535Z,6.00
2022-08-20T21:10:50.280Z,4.50
2022-08-20T21:15:53.038Z,4.20
2022-08-20T21:20:55.821Z,4.30
2022-08-20T21:26:00.124Z,3.90
2022-08-20T21:31:03.145Z,3.80
2022-08-20T21:36:06.402Z,4.20
2022-08-20T21:41:09.210Z,4.40
2022-08-20T21:46:12.735Z,5.00
2022-08-20T21:51:15.656Z,5.10
2022-08-20T22:01:21.574Z,4.50
2022-08-20T22:06:24.972Z,5.10
2022-08-20T22:11:28.195Z,5.00
2022-08-20T22:16:30.972Z,5.80
2022-08-20T22:21:35.245Z,5.80
2022-08-20T22:26:40.334Z,6.90
2022-08-20T22:31:44.040Z,6.40
2022-08-20T22:36:48.054Z,7.20
2022-08-20T22:41:50.986Z,8.70
2022-08-20T22:46:56.795Z,9.70
2022-08-20T22:52:00.218Z,10.10
2022-08-20T22:57:03.439Z,8.60
2022-08-20T23:02:12.924Z,10.00
2022-08-20T23:07:17.990Z,9.60
2022-08-20T23:12:20.782Z,11.10
2022-08-20T23:17:23.745Z,10.90
2022-08-20T23:22:26.602Z,10.70
2022-08-20T23:27:29.689Z,11.70
2022-08-20T23:32:32.383Z,10.60
2022-08-20T23:37:40.300Z,11.30
2022-08-20T23:42:43.277Z,10.80
2022-08-20T23:47:46.380Z,11.60
2022-08-20T23:52:49.245Z,11.40
2022-08-20T23:57:52.370Z,12.20
